Ellsworth Air Force Base
KRCA : rendu visible

Aérodrome :











RETROUVEZ-NOUS SUR...

 
LOGIN :

S'inscrire | Disclaimer

   EN    FR    IT 

 









Légende :    VFR   VFR Marginal   IFR   IFR Intensif   IFR Très Intensif
Visi : 
Plafond : 
>= 8 km
>= 3000ft
5 à 8 km
1000 à 3000 ft
1500m à 5 km
500 à 1000 ft
800 à 1500m
200 à 500 ft
< 800m
< 200 ft
Symboles :   Orages  Brouillard  Fortes neiges  Fortes précipitations  Vent > 20 kt






- Altitude de l'aérodrome : 3276 ft


KRCA - Ellsworth Air Force Base

DERNIER METAR :
  • 100656Z AUTO 36012KT 10SM FEW008 M10/M13 A3007 RMK AO2 SLP237 T11051132 410031139

METARs EXPIRÉS :
  • 100556Z 34013KT 10SM FEW044 SCT060 M07/M13 A3004 RMK AO2A PK WND 31029/02 SLP227 60000 4/001 T10751126 11004 21075 52023
  • 100457Z 32016KT 10SM BKN032 OVC044 M06/M12 A3002 RMK AO2A PK WND 35027/57 SNB03E23 SLP220 P0000 T10611118
  • 100428Z 32018G23KT 9SM OVC033 M06/M10 A3000 RMK AO2A SNB03E23 SLP216

TAF AMD TAF KRCA
Valide du 10 à 04h jusqu'au 11 à 09h UTC


100430Z 1004/1109 32010G20KT 9000 -SHSN BR BKN030 620306 QNH2998INS
BECMG 1017/1018 34009KT 9999 NSW SCT022 QNH3004INS TXM03/1022Z TNM13/1011Z



MET'MAP, la Météo Aéronautique d'un coup d'oeil ! - Copyright ORBIFLY Décembre 2007 - Disclaimer

ORBIFLY MET'MAP TEAM :

Programmation & Développement : Alexandra Zaïnal
Sur une idée originale de : Baudouin d'Aumeries
Assistance à la programmation : Marc-Olivier Méhu
Soutien technique & logistique : Manuel Goepfert

Contact : metmap@orbifly.com




SOURCES & CREDITS :

   NOAA       Earth
Advisory